AMX330 MMMX-MMPR
Flight info
| Callsign | AMX330 |
|---|---|
| Flight time | N/A |
| Altitude | 32000 |
| Route | SEBO3A/05L SEBON UT124 GDL UJ14N PVR |
| Aircraft | B738/M-SDE2E3FGHIRWXY/LB1 |
Departure
| Time | N/A |
|---|---|
| Airport | Mexico City Benito Juárez International Airport (MMMX) |
Arrival
| Time | 2026-05-03 21:07 |
|---|---|
| Airport | Puerto Vallarta International Airport (MMPR) |
| Time | Latitude | Longitude | Altitude | Speed | Heading |
|---|---|---|---|---|---|
| 2026-05-03 20:15 | 19.41208 | -100.32427 | 30881 ft | 417 kts | 291° |
| 2026-05-03 20:15 | 19.43113 | -100.38174 | 30865 ft | 409 kts | 290° |
| 2026-05-03 20:16 | 19.44979 | -100.43850 | 30883 ft | 409 kts | 290° |
| 2026-05-03 20:16 | 19.46851 | -100.49580 | 30859 ft | 412 kts | 290° |
| 2026-05-03 20:17 | 19.48728 | -100.55330 | 30861 ft | 413 kts | 290° |
| 2026-05-03 20:17 | 19.50627 | -100.61077 | 30845 ft | 413 kts | 290° |
| 2026-05-03 20:18 | 19.52518 | -100.66836 | 30852 ft | 413 kts | 290° |
| 2026-05-03 20:18 | 19.54384 | -100.72549 | 30848 ft | 413 kts | 290° |
| 2026-05-03 20:19 | 19.56311 | -100.78276 | 30853 ft | 411 kts | 291° |
| 2026-05-03 20:19 | 19.58271 | -100.83977 | 30916 ft | 411 kts | 291° |
| 2026-05-03 20:20 | 19.60218 | -100.89667 | 30985 ft | 410 kts | 291° |
| 2026-05-03 20:20 | 19.62158 | -100.95362 | 31051 ft | 409 kts | 291° |
| 2026-05-03 20:21 | 19.64087 | -101.01040 | 31073 ft | 409 kts | 291° |
| 2026-05-03 20:21 | 19.66004 | -101.06688 | 31101 ft | 409 kts | 291° |
| 2026-05-03 20:22 | 19.67928 | -101.12367 | 31107 ft | 410 kts | 291° |
| 2026-05-03 20:22 | 19.69858 | -101.18067 | 31079 ft | 410 kts | 291° |
| 2026-05-03 20:23 | 19.71785 | -101.23768 | 31041 ft | 410 kts | 291° |
| 2026-05-03 20:23 | 19.73710 | -101.29466 | 30995 ft | 410 kts | 291° |
| 2026-05-03 20:24 | 19.75631 | -101.35162 | 30937 ft | 410 kts | 291° |
| 2026-05-03 20:24 | 19.77554 | -101.40868 | 30881 ft | 410 kts | 291° |
| 2026-05-03 20:25 | 19.79463 | -101.46544 | 30884 ft | 410 kts | 291° |
| 2026-05-03 20:25 | 19.81381 | -101.52249 | 30888 ft | 411 kts | 291° |
| 2026-05-03 20:26 | 19.83304 | -101.57977 | 30880 ft | 410 kts | 290° |
| 2026-05-03 20:26 | 19.85208 | -101.63656 | 30886 ft | 410 kts | 290° |
| 2026-05-03 20:27 | 19.87115 | -101.69350 | 30889 ft | 409 kts | 290° |
| 2026-05-03 20:27 | 19.89017 | -101.75035 | 30892 ft | 408 kts | 290° |
| 2026-05-03 20:28 | 19.90915 | -101.80717 | 30882 ft | 408 kts | 290° |
| 2026-05-03 20:28 | 19.92812 | -101.86401 | 30884 ft | 408 kts | 290° |
| 2026-05-03 20:29 | 19.94708 | -101.92087 | 30883 ft | 408 kts | 290° |
| 2026-05-03 20:29 | 19.96601 | -101.97774 | 30881 ft | 409 kts | 290° |
| 2026-05-03 20:30 | 19.98499 | -102.03481 | 30886 ft | 409 kts | 290° |
| 2026-05-03 20:30 | 20.00391 | -102.09177 | 30891 ft | 409 kts | 290° |
| 2026-05-03 20:31 | 20.02282 | -102.14878 | 30886 ft | 408 kts | 290° |
| 2026-05-03 20:31 | 20.04157 | -102.20536 | 30885 ft | 408 kts | 290° |
| 2026-05-03 20:32 | 20.06042 | -102.26234 | 30890 ft | 408 kts | 290° |
| 2026-05-03 20:32 | 20.07927 | -102.31935 | 30874 ft | 408 kts | 290° |
| 2026-05-03 20:33 | 20.09492 | -102.36675 | 30882 ft | 408 kts | 290° |
| 2026-05-03 20:33 | 20.11674 | -102.43292 | 30883 ft | 407 kts | 290° |
| 2026-05-03 20:34 | 20.13547 | -102.48980 | 30890 ft | 407 kts | 290° |
| 2026-05-03 20:34 | 20.15116 | -102.53749 | 30884 ft | 407 kts | 290° |
| 2026-05-03 20:35 | 20.16975 | -102.59411 | 30891 ft | 407 kts | 290° |
| 2026-05-03 20:35 | 20.18844 | -102.65104 | 30891 ft | 407 kts | 290° |
| 2026-05-03 20:36 | 20.20938 | -102.70710 | 30885 ft | 407 kts | 298° |
| 2026-05-03 20:36 | 20.23697 | -102.75975 | 30891 ft | 407 kts | 300° |
| 2026-05-03 20:37 | 20.26471 | -102.81225 | 30894 ft | 407 kts | 299° |
| 2026-05-03 20:37 | 20.29227 | -102.86489 | 30888 ft | 407 kts | 299° |
| 2026-05-03 20:38 | 20.31972 | -102.91769 | 30896 ft | 407 kts | 299° |
| 2026-05-03 20:38 | 20.34714 | -102.97057 | 30892 ft | 408 kts | 299° |
| 2026-05-03 20:39 | 20.37461 | -103.02357 | 30950 ft | 408 kts | 299° |
| 2026-05-03 20:39 | 20.40187 | -103.07622 | 30994 ft | 409 kts | 299° |
| 2026-05-03 20:39 | 20.41564 | -103.10284 | 30631 ft | 411 kts | 299° |
| 2026-05-03 20:40 | 20.42941 | -103.12946 | 30334 ft | 407 kts | 299° |
| 2026-05-03 20:40 | 20.44302 | -103.15579 | 29987 ft | 402 kts | 299° |
| 2026-05-03 20:40 | 20.45643 | -103.18175 | 29620 ft | 397 kts | 299° |
| 2026-05-03 20:40 | 20.46970 | -103.20745 | 29263 ft | 393 kts | 299° |
| 2026-05-03 20:41 | 20.48288 | -103.23297 | 28900 ft | 390 kts | 299° |
| 2026-05-03 20:41 | 20.49590 | -103.25820 | 28520 ft | 388 kts | 299° |
| 2026-05-03 20:41 | 20.50884 | -103.28335 | 28144 ft | 385 kts | 298° |
| 2026-05-03 20:41 | 20.51933 | -103.30949 | 27768 ft | 384 kts | 289° |
| 2026-05-03 20:42 | 20.52611 | -103.33704 | 27405 ft | 383 kts | 281° |
| 2026-05-03 20:42 | 20.52928 | -103.36521 | 27045 ft | 382 kts | 277° |
| 2026-05-03 20:42 | 20.53176 | -103.39328 | 26769 ft | 379 kts | 277° |
| 2026-05-03 20:42 | 20.53411 | -103.42116 | 26465 ft | 376 kts | 277° |
| 2026-05-03 20:43 | 20.53643 | -103.44855 | 26159 ft | 374 kts | 277° |
| 2026-05-03 20:43 | 20.53881 | -103.47609 | 25855 ft | 372 kts | 277° |
| 2026-05-03 20:43 | 20.54121 | -103.50352 | 25545 ft | 371 kts | 278° |
| 2026-05-03 20:43 | 20.54366 | -103.53088 | 25245 ft | 370 kts | 278° |
| 2026-05-03 20:44 | 20.54613 | -103.55818 | 24947 ft | 369 kts | 278° |
| 2026-05-03 20:44 | 20.54861 | -103.58543 | 24650 ft | 369 kts | 278° |
| 2026-05-03 20:44 | 20.55110 | -103.61267 | 24357 ft | 368 kts | 278° |
| 2026-05-03 20:44 | 20.55358 | -103.63989 | 24066 ft | 368 kts | 278° |
| 2026-05-03 20:45 | 20.55605 | -103.66699 | 23776 ft | 367 kts | 278° |
| 2026-05-03 20:45 | 20.55851 | -103.69411 | 23492 ft | 367 kts | 278° |
| 2026-05-03 20:45 | 20.56097 | -103.72129 | 23187 ft | 366 kts | 278° |
| 2026-05-03 20:45 | 20.56342 | -103.74825 | 22884 ft | 365 kts | 278° |
| 2026-05-03 20:46 | 20.56582 | -103.77480 | 22579 ft | 364 kts | 278° |
| 2026-05-03 20:46 | 20.56829 | -103.80206 | 22274 ft | 363 kts | 277° |
| 2026-05-03 20:46 | 20.57069 | -103.82883 | 21975 ft | 362 kts | 277° |
| 2026-05-03 20:46 | 20.57307 | -103.85555 | 21679 ft | 361 kts | 278° |
| 2026-05-03 20:47 | 20.57543 | -103.88176 | 21389 ft | 359 kts | 277° |
| 2026-05-03 20:47 | 20.57784 | -103.90856 | 21096 ft | 358 kts | 277° |
| 2026-05-03 20:47 | 20.58018 | -103.93469 | 20808 ft | 357 kts | 277° |
| 2026-05-03 20:47 | 20.58252 | -103.96096 | 20530 ft | 355 kts | 277° |
| 2026-05-03 20:48 | 20.58484 | -103.98708 | 20246 ft | 354 kts | 277° |
| 2026-05-03 20:48 | 20.58719 | -104.01326 | 19968 ft | 353 kts | 277° |
| 2026-05-03 20:48 | 20.58951 | -104.03929 | 19693 ft | 352 kts | 277° |
| 2026-05-03 20:48 | 20.59182 | -104.06524 | 19427 ft | 351 kts | 277° |
| 2026-05-03 20:49 | 20.59412 | -104.09120 | 19152 ft | 351 kts | 277° |
| 2026-05-03 20:49 | 20.59642 | -104.11711 | 18894 ft | 350 kts | 277° |
| 2026-05-03 20:49 | 20.59871 | -104.14291 | 18621 ft | 349 kts | 277° |
| 2026-05-03 20:49 | 20.60098 | -104.16862 | 18362 ft | 348 kts | 277° |
| 2026-05-03 20:50 | 20.60326 | -104.19431 | 18078 ft | 347 kts | 277° |
| 2026-05-03 20:50 | 20.60552 | -104.21988 | 17887 ft | 344 kts | 276° |
| 2026-05-03 20:50 | 20.60773 | -104.24513 | 17680 ft | 340 kts | 276° |
| 2026-05-03 20:50 | 20.61023 | -104.27010 | 17468 ft | 336 kts | 281° |
| 2026-05-03 20:51 | 20.61790 | -104.29353 | 17261 ft | 332 kts | 296° |
| 2026-05-03 20:51 | 20.62809 | -104.31562 | 17057 ft | 333 kts | 297° |
| 2026-05-03 20:51 | 20.63849 | -104.33751 | 16825 ft | 335 kts | 297° |
| 2026-05-03 20:51 | 20.64902 | -104.35966 | 16595 ft | 333 kts | 296° |
| 2026-05-03 20:52 | 20.65933 | -104.38151 | 16346 ft | 325 kts | 296° |
| 2026-05-03 20:52 | 20.66925 | -104.40271 | 16109 ft | 314 kts | 296° |
| 2026-05-03 20:52 | 20.67884 | -104.42332 | 15853 ft | 304 kts | 296° |
| 2026-05-03 20:52 | 20.68810 | -104.44333 | 15618 ft | 297 kts | 295° |
| 2026-05-03 20:53 | 20.69714 | -104.46288 | 15393 ft | 292 kts | 295° |
| 2026-05-03 20:53 | 20.70606 | -104.48222 | 15148 ft | 289 kts | 295° |
| 2026-05-03 20:53 | 20.71500 | -104.50158 | 14927 ft | 293 kts | 295° |
| 2026-05-03 20:53 | 20.72406 | -104.52123 | 14715 ft | 298 kts | 295° |
| 2026-05-03 20:54 | 20.73329 | -104.54125 | 14484 ft | 300 kts | 295° |
| 2026-05-03 20:54 | 20.75155 | -104.58085 | 13981 ft | 295 kts | 294° |
| 2026-05-03 20:54 | 20.76045 | -104.60017 | 13744 ft | 292 kts | 295° |
| 2026-05-03 20:55 | 20.76936 | -104.61953 | 13422 ft | 289 kts | 294° |
| 2026-05-03 20:55 | 20.77822 | -104.63878 | 13204 ft | 287 kts | 294° |
| 2026-05-03 20:55 | 20.78704 | -104.65801 | 12907 ft | 288 kts | 294° |
| 2026-05-03 20:55 | 20.79591 | -104.67733 | 12585 ft | 291 kts | 294° |
| 2026-05-03 20:56 | 20.80485 | -104.69683 | 12248 ft | 293 kts | 294° |
| 2026-05-03 20:56 | 20.81385 | -104.71643 | 11883 ft | 294 kts | 294° |
| 2026-05-03 20:56 | 20.82288 | -104.73609 | 11536 ft | 294 kts | 293° |
| 2026-05-03 20:56 | 20.83186 | -104.75563 | 11195 ft | 290 kts | 294° |
| 2026-05-03 20:57 | 20.84072 | -104.77495 | 10842 ft | 287 kts | 294° |
| 2026-05-03 20:57 | 20.84945 | -104.79396 | 10487 ft | 284 kts | 294° |
| 2026-05-03 20:57 | 20.85809 | -104.81287 | 10148 ft | 281 kts | 292° |
| 2026-05-03 20:57 | 20.86336 | -104.83234 | 9786 ft | 274 kts | 274° |
| 2026-05-03 20:58 | 20.86538 | -104.85275 | 9373 ft | 273 kts | 274° |
| 2026-05-03 20:58 | 20.86724 | -104.87271 | 8942 ft | 273 kts | 274° |
| 2026-05-03 20:58 | 20.86926 | -104.89283 | 8490 ft | 270 kts | 275° |
| 2026-05-03 20:58 | 20.87131 | -104.91238 | 8083 ft | 260 kts | 275° |
| 2026-05-03 20:59 | 20.87331 | -104.93131 | 7659 ft | 252 kts | 275° |
| 2026-05-03 20:59 | 20.87527 | -104.94977 | 7212 ft | 247 kts | 276° |
| 2026-05-03 20:59 | 20.87718 | -104.96782 | 6807 ft | 242 kts | 276° |
| 2026-05-03 20:59 | 20.87907 | -104.98564 | 6369 ft | 240 kts | 276° |
| 2026-05-03 21:00 | 20.88094 | -105.00323 | 5908 ft | 237 kts | 277° |
| 2026-05-03 21:00 | 20.88112 | -105.01486 | 5584 ft | 236 kts | 261° |
| 2026-05-03 21:00 | 20.87138 | -105.03548 | 4996 ft | 234 kts | 231° |
| 2026-05-03 21:00 | 20.86050 | -105.04829 | 4537 ft | 232 kts | 227° |
| 2026-05-03 21:01 | 20.84939 | -105.06065 | 4098 ft | 229 kts | 226° |
| 2026-05-03 21:01 | 20.83841 | -105.07285 | 3667 ft | 227 kts | 227° |
| 2026-05-03 21:01 | 20.82764 | -105.08501 | 3247 ft | 223 kts | 228° |
| 2026-05-03 21:01 | 20.81736 | -105.09671 | 2955 ft | 205 kts | 228° |
| 2026-05-03 21:02 | 20.80821 | -105.10716 | 2885 ft | 180 kts | 228° |
| 2026-05-03 21:02 | 20.80037 | -105.11612 | 2863 ft | 155 kts | 229° |
| 2026-05-03 21:02 | 20.79321 | -105.12432 | 2698 ft | 148 kts | 228° |
| 2026-05-03 21:02 | 20.78625 | -105.13225 | 2543 ft | 145 kts | 228° |
| 2026-05-03 21:03 | 20.77938 | -105.14014 | 2385 ft | 145 kts | 228° |
| 2026-05-03 21:03 | 20.77266 | -105.14790 | 2212 ft | 141 kts | 229° |
| 2026-05-03 21:03 | 20.76601 | -105.15555 | 2058 ft | 139 kts | 227° |
| 2026-05-03 21:03 | 20.75937 | -105.16316 | 1880 ft | 140 kts | 228° |
| 2026-05-03 21:04 | 20.75290 | -105.17060 | 1760 ft | 141 kts | 227° |
| 2026-05-03 21:04 | 20.74627 | -105.17823 | 1757 ft | 137 kts | 229° |
| 2026-05-03 21:04 | 20.73970 | -105.18585 | 1645 ft | 142 kts | 227° |
| 2026-05-03 21:04 | 20.73280 | -105.19357 | 1514 ft | 143 kts | 226° |
| 2026-05-03 21:05 | 20.72602 | -105.20126 | 1359 ft | 142 kts | 227° |
| 2026-05-03 21:05 | 20.71911 | -105.20865 | 1171 ft | 138 kts | 225° |
| 2026-05-03 21:05 | 20.71237 | -105.21643 | 914 ft | 151 kts | 228° |
| 2026-05-03 21:05 | 20.70553 | -105.22505 | 764 ft | 149 kts | 228° |
| 2026-05-03 21:06 | 20.69856 | -105.23282 | 490 ft | 141 kts | 228° |
| 2026-05-03 21:06 | 20.69196 | -105.24020 | 204 ft | 138 kts | 227° |
| 2026-05-03 21:06 | 20.68574 | -105.24763 | 37 ft | 125 kts | 228° |
| 2026-05-03 21:06 | 20.68077 | -105.25342 | 27 ft | 79 kts | 226° |
| 2026-05-03 21:07 | 20.67813 | -105.25594 | 26 ft | 34 kts | 207° |
| 2026-05-03 21:07 | 20.67661 | -105.25658 | 24 ft | 15 kts | 181° |
| 2026-05-03 21:07 | 20.67615 | -105.25642 | 23 ft | 0 kts | 123° |
| 2026-05-03 21:07 | 20.67615 | -105.25640 | 23 ft | 1 kts | 107° |
| 2026-05-03 21:08 | 20.67617 | -105.25639 | 23 ft | 0 kts | 84° |
| 2026-05-03 21:08 | 20.67628 | -105.25608 | 23 ft | 11 kts | 61° |
| 2026-05-03 21:08 | 20.67655 | -105.25575 | 24 ft | 0 kts | 47° |
| 2026-05-03 21:08 | 20.67671 | -105.25562 | 25 ft | 20 kts | 41° |
| 2026-05-03 21:09 | 20.67764 | -105.25442 | 27 ft | 23 kts | 46° |
| 2026-05-03 21:09 | 20.67863 | -105.25333 | 27 ft | 21 kts | 46° |
| 2026-05-03 21:09 | 20.67902 | -105.25249 | 28 ft | 19 kts | 101° |
| 2026-05-03 21:09 | 20.67838 | -105.25141 | 29 ft | 17 kts | 112° |
| 2026-05-03 21:10 | 20.67891 | -105.25029 | 26 ft | 19 kts | 47° |
| 2026-05-03 21:10 | 20.67957 | -105.24909 | 26 ft | 18 kts | 62° |
| 2026-05-03 21:10 | 20.67986 | -105.24768 | 27 ft | 18 kts | 60° |